Time;durP1;ratioP1;P1;durP2;ratioP2;P2;SDS_P1;SDS_P2;PMS_P1;PMS_P2;Temp;Humidity;BMP_temperature;BMP_pressure;BME280_temperature;BME280_humidity;BME280_pressure;Samples;Min_cycle;Max_cycle;Signal;HPM_P1;HPM_P2
2022/08/25 00:01:21;;;;;;;31.42;18.70;;;21.10;99.90;;;;;;4995423;28;20061;-76
2022/08/25 00:03:47;;;;;;;29.67;20.08;;;21.10;99.90;;;;;;5001676;28;20038;-76
2022/08/25 00:06:13;;;;;;;;;;;21.10;99.90;;;;;;4999785;28;20048;-76
2022/08/25 00:08:40;;;;;;;28.70;18.70;;;21.10;99.90;;;;;;4997759;28;20400;-76
2022/08/25 00:11:15;;;;;;;30.70;18.98;;;21.10;99.90;;;;;;5018138;28;20049;-78
2022/08/25 00:13:43;;;;;;;30.63;20.42;;;21.00;99.90;;;;;;4996468;28;20041;-78
2022/08/25 00:16:10;;;;;;;33.75;19.83;;;21.00;99.90;;;;;;5015864;28;20599;-78
2022/08/25 00:18:38;;;;;;;33.88;21.38;;;21.00;99.90;;;;;;5011899;28;20091;-78
2022/08/25 00:21:04;;;;;;;35.50;20.33;;;21.10;99.90;;;;;;5006451;28;20054;-78
2022/08/25 00:23:30;;;;;;;33.60;20.45;;;21.10;99.90;;;;;;5015335;28;20099;-78
2022/08/25 00:25:56;;;;;;;;;;;21.10;99.90;;;;;;4998353;28;20037;-78
2022/08/25 00:28:22;;;;;;;42.13;21.60;;;21.00;99.90;;;;;;5002654;28;19932;-78
2022/08/25 00:30:48;;;;;;;36.83;21.63;;;21.00;99.90;;;;;;5002043;28;20056;-78
2022/08/25 00:33:14;;;;;;;;;;;21.00;99.90;;;;;;4999198;28;20566;-78
2022/08/25 00:35:41;;;;;;;34.35;19.58;;;21.00;99.90;;;;;;5001587;28;19917;-78
2022/08/25 00:38:07;;;;;;;32.42;20.02;;;21.00;99.90;;;;;;5001779;28;20554;-78
2022/08/25 00:40:33;;;;;;;32.75;18.35;;;21.00;99.90;;;;;;5014192;28;20065;-78
2022/08/25 00:42:59;;;;;;;;;;;21.00;99.90;;;;;;4999392;28;20037;-78
2022/08/25 00:45:25;;;;;;;31.20;16.63;;;21.00;99.90;;;;;;4996479;28;20483;-78
2022/08/25 00:47:51;;;;;;;;;;;21.00;99.90;;;;;;4996263;28;20166;-78
2022/08/25 00:50:16;;;;;;;26.25;15.35;;;21.00;99.90;;;;;;5020075;28;20003;-78
2022/08/25 00:52:47;;;;;;;24.58;15.98;;;21.00;99.90;;;;;;5025776;28;20043;-78
2022/08/25 00:55:28;;;;;;;25.42;16.10;;;21.00;99.90;;;;;;5005203;28;20053;-77
2022/08/25 00:58:02;;;;;;;27.52;15.80;;;21.00;99.90;;;;;;5027987;28;20064;-78
2022/08/25 01:00:38;;;;;;;25.40;13.85;;;21.00;99.90;;;;;;5016890;28;20049;-78
2022/08/25 01:03:05;;;;;;;24.00;14.02;;;21.00;99.90;;;;;;5003397;28;20509;-78
2022/08/25 01:05:39;;;;;;;24.08;15.00;;;20.90;99.90;;;;;;5014726;28;20120;-77
2022/08/25 01:08:07;;;;;;;19.13;12.82;;;20.90;99.90;;;;;;4991356;28;20041;-78
2022/08/25 01:10:40;;;;;;;18.17;11.60;;;20.90;99.90;;;;;;5022950;28;20100;-78
2022/08/25 01:13:14;;;;;;;18.33;12.38;;;20.90;99.90;;;;;;5013319;28;20049;-77
2022/08/25 01:15:40;;;;;;;19.60;12.35;;;20.90;99.90;;;;;;5025822;28;20556;-77
2022/08/25 01:18:06;;;;;;;;;;;20.90;99.90;;;;;;5003940;28;20037;-77
2022/08/25 01:20:53;;;;;;;15.45;10.63;;;20.90;99.90;;;;;;5028723;23;19948;-84
2022/08/25 01:24:12;;;;;;;;;;;;;;;;;;;;;
2022/08/25 01:27:02;;;;;;;16.25;10.20;;;20.80;99.90;;;;;;4967078;28;20057;-83
2022/08/25 01:29:35;;;;;;;14.68;9.20;;;20.80;99.90;;;;;;4984061;28;20677;-83
2022/08/25 01:32:05;;;;;;;13.75;9.50;;;20.70;99.90;;;;;;4992936;28;20133;-81
2022/08/25 01:34:52;;;;;;;12.10;8.40;;;20.70;99.90;;;;;;4994705;28;21199;-83
2022/08/25 01:37:21;;;;;;;11.32;8.00;;;20.70;99.90;;;;;;5006124;28;20041;-85
2022/08/25 01:39:47;;;;;;;13.43;8.02;;;20.70;99.90;;;;;;4988193;23;20044;-72
2022/08/25 01:42:18;;;;;;;;;;;20.70;99.90;;;;;;5006995;28;20499;-72
2022/08/25 01:44:45;;;;;;;10.43;6.65;;;20.70;99.90;;;;;;5029106;28;19925;-72
2022/08/25 01:47:13;;;;;;;10.35;7.10;;;20.70;99.90;;;;;;4991346;28;20100;-72
2022/08/25 01:49:41;;;;;;;9.23;5.95;;;20.70;99.90;;;;;;5023622;28;20037;-72
2022/08/25 01:52:28;;;;;;;8.88;5.50;;;20.60;99.90;;;;;;5037627;28;20091;-72
2022/08/25 01:54:54;;;;;;;8.23;5.30;;;20.60;99.90;;;;;;5023881;28;20124;-72
2022/08/25 01:57:20;;;;;;;;;;;20.60;99.90;;;;;;5009444;28;20129;-72
2022/08/25 01:59:46;;;;;;;9.73;4.90;;;20.50;99.90;;;;;;5023964;28;19928;-72
2022/08/25 02:02:12;;;;;;;;;;;20.50;99.90;;;;;;5026194;28;20049;-72
2022/08/25 02:04:38;;;;;;;7.70;4.40;;;20.50;99.90;;;;;;5025077;28;20370;-72
2022/08/25 02:07:06;;;;;;;5.15;3.88;;;20.50;99.90;;;;;;5007782;28;20064;-72
2022/08/25 02:09:33;;;;;;;7.43;4.90;;;20.50;99.90;;;;;;5021168;28;20041;-72
2022/08/25 02:11:59;;;;;;;5.93;3.53;;;20.50;99.90;;;;;;5001292;28;20045;-72
2022/08/25 02:14:24;;;;;;;;;;;20.40;99.90;;;;;;5007820;28;20100;-72
2022/08/25 02:16:52;;;;;;;7.60;3.65;;;20.40;99.90;;;;;;5004739;28;19983;-72
2022/08/25 02:19:19;;;;;;;5.88;3.30;;;20.40;99.90;;;;;;5004205;28;20056;-72
2022/08/25 02:21:45;;;;;;;4.72;3.50;;;20.30;99.90;;;;;;5005223;28;20277;-74
2022/08/25 02:24:11;;;;;;;4.10;3.17;;;20.30;99.90;;;;;;5004345;28;20188;-74
2022/08/25 02:26:38;;;;;;;5.97;3.13;;;20.30;99.90;;;;;;5024350;28;20045;-74
2022/08/25 02:29:06;;;;;;;5.43;3.00;;;20.30;99.90;;;;;;5023392;28;20044;-74
2022/08/25 02:31:31;;;;;;;4.53;2.90;;;20.30;99.90;;;;;;5024197;28;20084;-74
2022/08/25 02:33:57;;;;;;;5.93;2.80;;;20.30;99.90;;;;;;4989574;28;20069;-74
2022/08/25 02:36:23;;;;;;;4.50;2.85;;;20.30;99.90;;;;;;5018676;28;20506;-74
2022/08/25 02:38:49;;;;;;;3.78;2.70;;;20.30;99.90;;;;;;5025786;28;20048;-74
2022/08/25 02:41:21;;;;;;;4.40;2.88;;;20.20;99.90;;;;;;4982966;28;20402;-74
2022/08/25 02:43:47;;;;;;;3.88;2.97;;;20.20;99.90;;;;;;5018655;28;20033;-74
2022/08/25 02:46:14;;;;;;;2.72;2.10;;;20.20;99.90;;;;;;5009274;28;20045;-74
2022/08/25 02:48:44;;;;;;;4.95;2.58;;;20.20;99.90;;;;;;5015239;28;20475;-74
2022/08/25 02:51:11;;;;;;;6.13;2.38;;;20.20;99.90;;;;;;5006744;28;20490;-74
2022/08/25 02:53:39;;;;;;;6.68;2.55;;;20.20;99.90;;;;;;5037971;28;20048;-74
2022/08/25 02:56:08;;;;;;;3.45;2.17;;;20.20;99.90;;;;;;5013179;28;20087;-74
2022/08/25 02:58:35;;;;;;;4.45;2.53;;;20.20;99.90;;;;;;5037942;28;20513;-74
2022/08/25 03:01:00;;;;;;;3.40;2.25;;;20.20;99.90;;;;;;5003679;28;20060;-74
2022/08/25 03:03:26;;;;;;;4.72;2.28;;;20.10;99.90;;;;;;5007392;28;20149;-74
2022/08/25 03:05:52;;;;;;;3.38;2.03;;;20.10;99.90;;;;;;5026211;28;20045;-74
2022/08/25 03:08:18;;;;;;;3.50;2.60;;;20.10;99.90;;;;;;5027815;28;20081;-74
2022/08/25 03:10:44;;;;;;;4.28;2.70;;;20.10;99.90;;;;;;5009137;28;20084;-74
2022/08/25 03:13:13;;;;;;;;;;;20.10;99.90;;;;;;5022794;28;20046;-74
2022/08/25 03:15:41;;;;;;;4.00;2.25;;;20.10;99.90;;;;;;5027066;28;20267;-74
2022/08/25 03:18:06;;;;;;;3.28;2.22;;;20.00;99.90;;;;;;5007024;28;20479;-74
2022/08/25 03:20:34;;;;;;;4.30;1.98;;;20.00;99.90;;;;;;5030073;28;20033;-74
2022/08/25 03:23:01;;;;;;;3.10;1.95;;;20.00;99.90;;;;;;5008462;28;20048;-74
2022/08/25 03:28:12;;;;;;;3.53;2.10;;;20.00;99.90;;;;;;5010076;28;20041;-74
2022/08/25 03:30:38;;;;;;;3.78;2.00;;;20.10;99.90;;;;;;5010141;28;20048;-74
2022/08/25 03:33:03;;;;;;;2.80;1.92;;;20.00;99.90;;;;;;5009536;28;20091;-74
2022/08/25 03:35:29;;;;;;;3.38;1.92;;;20.10;99.90;;;;;;5021767;28;20059;-74
2022/08/25 03:37:56;;;;;;;3.17;1.80;;;20.10;99.90;;;;;;5011829;28;20052;-74
2022/08/25 03:40:22;;;;;;;3.33;2.05;;;20.10;99.90;;;;;;5012628;28;20056;-74
2022/08/25 03:42:48;;;;;;;3.33;1.73;;;20.00;99.90;;;;;;5030282;28;20483;-74
2022/08/25 03:45:16;;;;;;;6.38;2.03;;;20.00;99.90;;;;;;5028425;28;20045;-74
2022/08/25 03:47:44;;;;;;;3.15;1.83;;;20.00;99.90;;;;;;5025416;28;20052;-74
2022/08/25 03:50:10;;;;;;;2.95;1.83;;;20.00;99.90;;;;;;5009495;28;20052;-74
2022/08/25 03:52:37;;;;;;;5.00;2.00;;;20.00;99.90;;;;;;5029066;28;20041;-73
2022/08/25 03:55:06;;;;;;;3.45;2.30;;;19.90;99.90;;;;;;5028876;28;20037;-73
2022/08/25 03:57:33;;;;;;;4.35;2.35;;;20.00;99.90;;;;;;5009728;28;20042;-73
2022/08/25 04:00:05;;;;;;;3.78;1.83;;;20.00;99.90;;;;;;5008687;28;20048;-74
2022/08/25 04:02:32;;;;;;;2.25;1.80;;;19.90;99.90;;;;;;5028700;28;20454;-73
2022/08/25 04:04:58;;;;;;;3.03;1.85;;;19.90;99.90;;;;;;5026947;28;20044;-73
2022/08/25 04:07:23;;;;;;;2.70;1.67;;;19.90;99.90;;;;;;5044110;28;20038;-74
2022/08/25 04:09:49;;;;;;;3.92;1.90;;;19.90;99.90;;;;;;5025862;28;20084;-73
2022/08/25 04:12:17;;;;;;;5.32;2.00;;;19.80;99.90;;;;;;5027004;28;20045;-73
2022/08/25 04:14:43;;;;;;;5.07;2.30;;;19.90;99.90;;;;;;5029785;28;20170;-73
2022/08/25 04:17:12;;;;;;;3.15;2.00;;;19.80;99.90;;;;;;4991768;28;20177;-73
2022/08/25 04:19:39;;;;;;;3.83;2.00;;;19.80;99.90;;;;;;5007769;28;20061;-73
2022/08/25 04:22:05;;;;;;;3.53;2.08;;;19.70;99.90;;;;;;5030774;28;20033;-73
2022/08/25 04:24:31;;;;;;;4.60;1.95;;;19.70;99.90;;;;;;5023004;28;20049;-73
2022/08/25 04:26:57;;;;;;;2.85;1.95;;;19.70;99.90;;;;;;5028757;28;20128;-73
2022/08/25 04:29:24;;;;;;;2.80;1.83;;;19.70;99.90;;;;;;5034264;28;20135;-73
2022/08/25 04:31:51;;;;;;;4.85;2.28;;;19.70;99.90;;;;;;5019596;28;20243;-74
2022/08/25 04:34:19;;;;;;;3.47;1.92;;;19.70;99.90;;;;;;5033111;28;20107;-73
2022/08/25 04:36:49;;;;;;;4.30;2.00;;;19.60;99.90;;;;;;4998384;28;20487;-73
2022/08/25 04:39:16;;;;;;;4.45;1.95;;;19.70;99.90;;;;;;5028212;28;20045;-74
2022/08/25 04:41:42;;;;;;;3.70;2.30;;;19.60;99.90;;;;;;5028118;28;20076;-70
2022/08/25 04:44:08;;;;;;;3.50;1.63;;;19.60;99.90;;;;;;5030081;28;20033;-72
2022/08/25 04:46:34;;;;;;;5.50;1.98;;;19.60;99.90;;;;;;5011833;28;20065;-70
2022/08/25 04:49:00;;;;;;;;;;;19.60;99.90;;;;;;5008099;28;20169;-70
2022/08/25 04:51:42;;;;;;;4.60;2.33;;;19.60;99.90;;;;;;5010381;28;19917;-70
2022/08/25 04:54:12;;;;;;;3.83;1.92;;;19.60;99.90;;;;;;5013797;28;20045;-71
2022/08/25 04:56:43;;;;;;;4.25;2.10;;;19.50;99.90;;;;;;5010039;28;20120;-71
2022/08/25 04:59:13;;;;;;;3.58;2.13;;;19.50;99.90;;;;;;4984047;28;20045;-70
2022/08/25 05:01:41;;;;;;;4.13;1.90;;;19.50;99.90;;;;;;4993360;28;20045;-70
2022/08/25 05:04:16;;;;;;;3.70;2.22;;;19.50;99.90;;;;;;5006356;28;20033;-73
2022/08/25 05:06:42;;;;;;;4.05;2.17;;;19.50;99.90;;;;;;5025923;28;20336;-73
2022/08/25 05:09:08;;;;;;;4.85;2.20;;;19.50;99.90;;;;;;5015536;28;20046;-73
2022/08/25 05:11:34;;;;;;;6.00;2.30;;;19.50;99.90;;;;;;5023868;28;20495;-73
2022/08/25 05:14:01;;;;;;;7.40;2.20;;;19.50;99.90;;;;;;5005137;28;20107;-73
2022/08/25 05:16:27;;;;;;;3.85;2.33;;;19.50;99.90;;;;;;5010511;28;20060;-73
2022/08/25 05:18:54;;;;;;;4.82;1.85;;;19.60;99.90;;;;;;5040153;28;20128;-71
2022/08/25 05:21:23;;;;;;;3.78;2.13;;;19.50;99.90;;;;;;5007242;28;20064;-72
2022/08/25 05:23:48;;;;;;;3.72;2.10;;;19.60;99.90;;;;;;5017073;28;20033;-71
2022/08/25 05:26:20;;;;;;;3.78;2.47;;;19.60;99.90;;;;;;5026930;28;20056;-72
2022/08/25 05:28:47;;;;;;;4.57;2.20;;;19.50;99.90;;;;;;5003514;28;20095;-72
2022/08/25 05:31:14;;;;;;;4.72;1.90;;;19.60;99.90;;;;;;5022688;28;20049;-72
2022/08/25 05:33:43;;;;;;;6.68;2.22;;;19.60;99.90;;;;;;4996478;28;20048;-71
2022/08/25 05:36:10;;;;;;;3.50;2.00;;;19.60;99.90;;;;;;5001289;28;20076;-71
2022/08/25 05:38:36;;;;;;;3.40;2.20;;;19.60;99.90;;;;;;5028653;28;20053;-71
2022/08/25 05:41:05;;;;;;;4.50;2.05;;;19.60;99.90;;;;;;5026808;28;20037;-70
2022/08/25 05:43:31;;;;;;;3.58;2.03;;;19.60;99.90;;;;;;5020184;28;20053;-71
2022/08/25 05:46:00;;;;;;;3.17;2.03;;;19.60;99.90;;;;;;5003179;28;20162;-71
2022/08/25 05:48:28;;;;;;;3.97;2.15;;;19.70;99.90;;;;;;4994962;28;20131;-71
2022/08/25 05:50:56;;;;;;;4.72;2.15;;;19.70;99.90;;;;;;5009099;28;20060;-71
2022/08/25 05:53:23;;;;;;;4.32;2.13;;;19.60;99.90;;;;;;4996651;28;20369;-70
2022/08/25 05:55:51;;;;;;;3.70;2.00;;;19.70;99.90;;;;;;5012563;28;20064;-71
2022/08/25 05:58:16;;;;;;;4.00;2.33;;;19.70;99.90;;;;;;5027315;28;20053;-71
2022/08/25 06:00:42;;;;;;;3.00;2.38;;;19.80;99.90;;;;;;5017359;28;20124;-73
2022/08/25 06:03:08;;;;;;;3.92;1.95;;;19.80;99.90;;;;;;5020744;28;20095;-73
2022/08/25 06:05:34;;;;;;;3.83;2.00;;;19.80;99.90;;;;;;5036968;28;20041;-73
2022/08/25 06:07:59;;;;;;;6.03;2.33;;;19.80;99.90;;;;;;5028414;28;20136;-73
2022/08/25 06:10:26;;;;;;;4.28;2.03;;;19.80;99.90;;;;;;5021258;28;20102;-73
2022/08/25 06:12:51;;;;;;;3.95;2.35;;;19.80;99.90;;;;;;4999898;28;20037;-73
2022/08/25 06:15:20;;;;;;;3.50;2.10;;;19.90;99.90;;;;;;5001928;28;20064;-72
2022/08/25 06:17:46;;;;;;;3.92;2.10;;;19.90;99.90;;;;;;5014162;28;20484;-71
2022/08/25 06:20:18;;;;;;;3.30;1.90;;;20.00;99.90;;;;;;5006643;28;20055;-71
2022/08/25 06:22:45;;;;;;;3.38;1.90;;;20.00;99.90;;;;;;5020191;28;20065;-70
2022/08/25 06:25:12;;;;;;;6.28;2.20;;;20.00;99.90;;;;;;4992125;28;20450;-71
2022/08/25 06:27:39;;;;;;;3.10;1.80;;;20.10;99.90;;;;;;5005919;28;20098;-71
2022/08/25 06:30:07;;;;;;;4.57;2.25;;;20.10;99.90;;;;;;5039731;28;20068;-71
2022/08/25 06:32:38;;;;;;;2.95;1.90;;;20.20;99.90;;;;;;5008610;28;20041;-71
2022/08/25 06:35:09;;;;;;;6.90;1.98;;;20.20;99.90;;;;;;4992019;28;20037;-71
2022/08/25 06:37:35;;;;;;;4.00;2.10;;;20.30;99.90;;;;;;5029173;28;20044;-71
2022/08/25 06:40:03;;;;;;;3.45;1.90;;;20.30;99.90;;;;;;4994177;28;20044;-71
2022/08/25 06:42:28;;;;;;;4.47;1.85;;;20.40;99.90;;;;;;5004204;28;20030;-71
2022/08/25 06:44:54;;;;;;;4.40;2.40;;;20.40;99.90;;;;;;5002379;28;20505;-71
2022/08/25 06:47:20;;;;;;;4.85;2.03;;;20.50;99.90;;;;;;5033066;28;20120;-71
2022/08/25 06:49:46;;;;;;;6.13;1.92;;;20.50;99.90;;;;;;5021729;28;20038;-71
2022/08/25 06:52:12;;;;;;;;;;;20.50;99.90;;;;;;5018705;28;20083;-71
2022/08/25 06:54:38;;;;;;;3.75;1.90;;;20.60;99.90;;;;;;5040924;28;20600;-71
2022/08/25 06:57:04;;;;;;;;;;;20.60;99.90;;;;;;5010535;28;20050;-71
2022/08/25 06:59:31;;;;;;;3.97;1.90;;;20.70;99.90;;;;;;4987797;28;19965;-71
2022/08/25 07:01:56;;;;;;;;;;;20.80;99.90;;;;;;5022270;28;20046;-71
2022/08/25 07:04:22;;;;;;;4.57;2.20;;;20.80;99.90;;;;;;5026150;28;19975;-71
2022/08/25 07:06:48;;;;;;;2.85;1.98;;;20.90;99.90;;;;;;5031758;28;20367;-71
2022/08/25 07:09:14;;;;;;;3.80;2.17;;;21.00;99.90;;;;;;5029582;28;20041;-71
2022/08/25 07:11:40;;;;;;;3.72;1.75;;;21.10;99.90;;;;;;5021465;28;20101;-71
2022/08/25 07:14:09;;;;;;;6.05;2.00;;;21.20;99.90;;;;;;5029991;28;20044;-71
2022/08/25 07:16:36;;;;;;;4.20;1.95;;;21.30;99.90;;;;;;5032035;28;20136;-71
2022/08/25 07:19:02;;;;;;;4.13;2.28;;;21.30;99.90;;;;;;5031435;28;20041;-71
2022/08/25 07:21:28;;;;;;;;;;;21.50;99.90;;;;;;5018628;23;20061;-75
2022/08/25 07:23:57;;;;;;;3.42;2.30;;;21.60;99.90;;;;;;5000259;28;20120;-75
2022/08/25 07:26:25;;;;;;;4.40;2.33;;;21.70;99.90;;;;;;4996722;28;20051;-75
2022/08/25 07:28:51;;;;;;;4.05;2.00;;;21.80;99.90;;;;;;4999485;28;20054;-75
2022/08/25 07:31:17;;;;;;;;;;;21.90;99.90;;;;;;4993789;28;20370;-75
2022/08/25 07:35:14;;;;;;;3.40;2.00;;;22.00;99.90;;;;;;4996327;28;20023;-75
2022/08/25 07:36:30;;;;;;;4.00;2.10;;;22.10;99.90;;;;;;5001487;28;20038;-75
2022/08/25 07:38:57;;;;;;;3.80;2.80;;;22.20;99.90;;;;;;5007008;28;20141;-75
2022/08/25 07:41:23;;;;;;;5.18;2.33;;;22.30;99.90;;;;;;5009571;28;20104;-75
2022/08/25 07:43:48;;;;;;;4.38;2.08;;;22.40;99.90;;;;;;4996254;28;20045;-75
2022/08/25 07:46:14;;;;;;;;;;;22.50;99.90;;;;;;4998300;28;20038;-75
2022/08/25 07:48:40;;;;;;;5.00;2.15;;;22.50;99.90;;;;;;5008656;28;19979;-75
2022/08/25 07:51:08;;;;;;;3.72;2.05;;;22.60;99.90;;;;;;4995201;28;20093;-75
2022/08/25 07:53:33;;;;;;;4.53;2.08;;;22.70;99.90;;;;;;4996517;28;20152;-75
2022/08/25 07:55:59;;;;;;;;;;;22.80;99.90;;;;;;4999760;28;21421;-75
2022/08/25 07:58:24;;;;;;;4.90;2.40;;;22.80;99.90;;;;;;5002728;28;20030;-75
2022/08/25 08:00:52;;;;;;;;;;;22.90;99.90;;;;;;4996220;28;20069;-75
2022/08/25 08:03:19;;;;;;;4.07;2.28;;;23.00;99.90;;;;;;5003720;28;20004;-75
2022/08/25 08:05:45;;;;;;;6.20;2.25;;;23.00;99.90;;;;;;5003099;28;20054;-75
2022/08/25 08:08:11;;;;;;;3.55;2.10;;;23.10;99.90;;;;;;4999209;28;20044;-75
2022/08/25 08:10:40;;;;;;;;;;;23.20;99.90;;;;;;5002480;28;20391;-75
2022/08/25 08:13:07;;;;;;;5.82;2.17;;;23.30;99.90;;;;;;4994655;28;19917;-75
2022/08/25 08:15:33;;;;;;;3.75;2.38;;;23.30;99.90;;;;;;4997167;28;20038;-74
2022/08/25 08:17:59;;;;;;;4.05;1.80;;;23.40;99.90;;;;;;4992814;28;20048;-75
2022/08/25 08:20:27;;;;;;;4.70;2.10;;;23.50;99.90;;;;;;4986855;28;20128;-75
2022/08/25 08:22:53;;;;;;;5.63;2.42;;;23.70;99.90;;;;;;5001166;28;20111;-75
2022/08/25 08:25:18;;;;;;;;;;;23.70;99.90;;;;;;4994956;28;20060;-75
2022/08/25 08:27:45;;;;;;;3.47;2.28;;;23.80;99.90;;;;;;4993499;28;19992;-75
2022/08/25 08:30:11;;;;;;;4.25;1.83;;;23.90;99.90;;;;;;4999232;28;20050;-75
2022/08/25 08:32:37;;;;;;;3.28;2.10;;;23.90;99.90;;;;;;4968777;28;20088;-75
2022/08/25 08:35:04;;;;;;;;;;;24.00;99.90;;;;;;4995709;28;20486;-75
2022/08/25 08:37:30;;;;;;;;;;;24.20;99.90;;;;;;5000057;28;20338;-75
2022/08/25 08:39:55;;;;;;;4.90;1.95;;;24.30;99.90;;;;;;4996629;28;19921;-75
2022/08/25 08:42:33;;;;;;;;;;;24.40;99.90;;;;;;5001388;28;20060;-75
2022/08/25 08:45:03;;;;;;;4.70;1.67;;;24.50;99.90;;;;;;5000351;28;20389;-75
2022/08/25 08:47:57;;;;;;;4.30;2.45;;;24.50;99.90;;;;;;4984785;28;20448;-74
2022/08/25 08:50:32;;;;;;;4.13;1.88;;;24.60;99.90;;;;;;4998307;28;20042;-75
2022/08/25 08:53:18;;;;;;;4.25;1.90;;;24.80;99.90;;;;;;4994479;28;20054;-75
2022/08/25 08:55:48;;;;;;;3.15;1.77;;;24.80;99.90;;;;;;5018066;28;20170;-75
2022/08/25 08:58:24;;;;;;;2.83;1.83;;;24.90;99.90;;;;;;5005849;28;20045;-75
2022/08/25 09:00:57;;;;;;;;;;;25.00;99.90;;;;;;4994342;28;20293;-75
2022/08/25 09:03:28;;;;;;;3.22;1.88;;;25.10;99.90;;;;;;4998257;28;20220;-75
2022/08/25 09:05:58;;;;;;;4.22;1.77;;;25.20;99.90;;;;;;4998034;28;20224;-75
2022/08/25 09:08:24;;;;;;;3.67;1.60;;;25.30;99.90;;;;;;5000994;28;20050;-75
2022/08/25 09:11:24;;;;;;;2.72;1.52;;;25.40;99.90;;;;;;4996725;28;20044;-75
2022/08/25 09:14:10;;;;;;;5.68;2.17;;;25.50;99.90;;;;;;4996446;28;20049;-75
2022/08/25 09:16:57;;;;;;;3.20;1.50;;;25.70;99.90;;;;;;4995071;28;20036;-75
2022/08/25 09:19:39;;;;;;;2.90;1.73;;;25.80;99.90;;;;;;5001524;28;20087;-75
2022/08/25 09:22:34;;;;;;;5.75;2.00;;;25.90;99.90;;;;;;4997027;28;20447;-75
2022/08/25 09:25:12;;;;;;;3.75;1.70;;;26.10;99.90;;;;;;5000418;28;20041;-75
2022/08/25 09:27:52;;;;;;;2.47;1.75;;;26.20;99.90;;;;;;4995936;28;20053;-75
2022/08/25 09:30:20;;;;;;;3.33;1.90;;;26.30;99.90;;;;;;5001748;28;20064;-75
2022/08/25 09:33:02;;;;;;;4.20;1.42;;;26.40;99.90;;;;;;4996193;28;20034;-75
2022/08/25 09:35:31;;;;;;;2.58;1.40;;;26.50;99.90;;;;;;5004505;28;20325;-75
2022/08/25 09:38:08;;;;;;;1.92;1.40;;;26.60;99.90;;;;;;4990508;28;20467;-75
2022/08/25 09:40:39;;;;;;;2.65;1.50;;;26.70;99.90;;;;;;5008068;28;20034;-75
2022/08/25 09:43:30;;;;;;;3.42;1.40;;;26.90;99.90;;;;;;4995253;28;20042;-75
2022/08/25 09:46:23;;;;;;;5.50;1.35;;;27.00;98.80;;;;;;4995225;28;20042;-75
2022/08/25 09:48:52;;;;;;;3.05;1.33;;;27.10;98.30;;;;;;5001718;28;20141;-75
2022/08/25 09:51:18;;;;;;;4.40;1.65;;;27.30;98.00;;;;;;5000784;28;20128;-75
2022/08/25 09:54:03;;;;;;;4.45;1.50;;;27.30;97.00;;;;;;4987325;28;20095;-75
2022/08/25 09:56:32;;;;;;;2.58;1.58;;;27.40;96.00;;;;;;4990811;28;20108;-76
2022/08/25 09:59:20;;;;;;;2.38;1.65;;;27.50;95.80;;;;;;5003502;28;20037;-75
2022/08/25 10:01:50;;;;;;;2.58;1.65;;;27.60;94.90;;;;;;4992811;28;20492;-75
2022/08/25 10:04:28;;;;;;;3.67;1.75;;;27.70;95.00;;;;;;4997144;28;21582;-75
2022/08/25 10:06:54;;;;;;;2.58;1.10;;;27.80;94.30;;;;;;5006060;28;20037;-75
2022/08/25 10:09:49;;;;;;;3.17;1.85;;;27.90;94.50;;;;;;4990269;28;20088;-75
2022/08/25 10:12:37;;;;;;;3.28;1.65;;;28.00;92.00;;;;;;4997996;28;20132;-75
2022/08/25 10:15:23;;;;;;;3.65;1.40;;;28.10;92.00;;;;;;5000831;28;20476;-75
2022/08/25 10:17:49;;;;;;;3.83;1.13;;;28.20;88.30;;;;;;4997984;28;20081;-75
2022/08/25 10:20:20;;;;;;;2.13;1.40;;;28.30;90.60;;;;;;4994051;28;20046;-75
2022/08/25 10:22:48;;;;;;;2.00;1.20;;;28.40;89.50;;;;;;4990702;28;20034;-75
2022/08/25 10:25:17;;;;;;;2.15;1.30;;;28.40;89.90;;;;;;4992856;28;20380;-75
2022/08/25 10:27:51;;;;;;;3.80;1.63;;;28.50;88.20;;;;;;4997715;28;20288;-75
2022/08/25 10:30:54;;;;;;;2.45;1.50;;;28.60;87.80;;;;;;5000251;28;20088;-75
2022/08/25 10:33:30;;;;;;;4.15;1.60;;;28.60;85.70;;;;;;4998609;28;20072;-75
2022/08/25 10:36:01;;;;;;;3.27;1.67;;;28.70;85.60;;;;;;5000252;28;20460;-75
2022/08/25 10:38:35;;;;;;;3.85;1.38;;;28.70;85.70;;;;;;5005409;28;20164;-75
2022/08/25 10:41:19;;;;;;;3.13;1.95;;;28.80;84.80;;;;;;4997936;28;20260;-75
2022/08/25 10:45:41;;;;;;;2.03;1.20;;;28.90;83.30;;;;;;5007048;28;20036;-75
2022/08/25 10:47:28;;;;;;;5.53;1.48;;;29.00;80.90;;;;;;4992904;28;20041;-75
2022/08/25 10:50:02;;;;;;;2.22;1.48;;;29.10;81.40;;;;;;5002652;28;20207;-75
2022/08/25 10:52:43;;;;;;;2.58;1.35;;;29.20;80.00;;;;;;5009608;28;20543;-75
2022/08/25 10:55:16;;;;;;;2.40;1.40;;;29.30;79.90;;;;;;5003665;28;20041;-75
2022/08/25 10:58:01;;;;;;;2.92;1.45;;;29.30;79.20;;;;;;5001954;28;20499;-75
2022/08/25 11:00:36;;;;;;;3.45;1.50;;;29.50;77.80;;;;;;4998025;28;20042;-75
2022/08/25 11:03:21;;;;;;;3.38;1.50;;;29.60;78.40;;;;;;4995278;28;20133;-75
2022/08/25 11:06:18;;;;;;;3.67;1.40;;;29.70;78.20;;;;;;5006552;28;20038;-75
2022/08/25 11:08:47;;;;;;;3.33;1.20;;;29.80;76.70;;;;;;4991204;28;20257;-75
2022/08/25 11:11:31;;;;;;;2.65;1.30;;;29.90;75.40;;;;;;4980656;28;20056;-75
2022/08/25 11:14:09;;;;;;;4.28;1.60;;;30.00;74.90;;;;;;5003387;28;20431;-75
2022/08/25 11:16:44;;;;;;;2.58;1.27;;;30.10;74.40;;;;;;4996944;28;20054;-75
2022/08/25 11:19:13;;;;;;;2.75;1.60;;;30.20;73.90;;;;;;4992235;28;20137;-75
2022/08/25 11:21:55;;;;;;;5.45;1.25;;;30.30;73.10;;;;;;4990324;28;20039;-76
2022/08/25 11:24:30;;;;;;;4.07;1.70;;;30.30;72.60;;;;;;5000852;28;20038;-75
2022/08/25 11:26:58;;;;;;;1.52;0.95;;;30.40;71.70;;;;;;4996461;28;20403;-75
2022/08/25 11:29:36;;;;;;;2.22;1.10;;;30.50;72.70;;;;;;4999561;28;20042;-75
2022/08/25 11:32:03;;;;;;;2.75;1.38;;;30.60;70.40;;;;;;4998165;28;20054;-75
2022/08/25 11:34:36;;;;;;;3.72;1.52;;;30.70;69.80;;;;;;4999333;28;20229;-75
2022/08/25 11:37:13;;;;;;;2.40;1.50;;;30.70;68.50;;;;;;5000950;28;20034;-75
2022/08/25 11:39:57;;;;;;;4.25;1.30;;;30.80;68.60;;;;;;5001401;28;20556;-75
2022/08/25 11:42:46;;;;;;;2.97;1.55;;;30.90;68.30;;;;;;5003233;28;20407;-75
2022/08/25 11:45:32;;;;;;;3.63;0.98;;;31.00;67.10;;;;;;4999112;28;20142;-75
2022/08/25 11:48:07;;;;;;;3.25;1.25;;;31.00;65.50;;;;;;4994503;28;20137;-75
2022/08/25 11:50:36;;;;;;;1.90;1.10;;;31.10;66.40;;;;;;5003255;28;20045;-75
2022/08/25 11:53:21;;;;;;;2.35;1.35;;;31.20;65.70;;;;;;5005942;28;20418;-75
2022/08/25 11:55:49;;;;;;;3.33;1.20;;;31.30;64.60;;;;;;5006232;28;20070;-75
2022/08/25 11:58:40;;;;;;;4.05;1.60;;;31.40;64.80;;;;;;5010143;28;20538;-75
2022/08/25 12:01:31;;;;;;;2.00;1.38;;;31.50;64.20;;;;;;4996497;28;20529;-75
2022/08/25 12:04:34;;;;;;;2.47;1.63;;;31.50;64.20;;;;;;4990865;28;20467;-75
2022/08/25 12:07:05;;;;;;;3.20;1.38;;;31.60;62.80;;;;;;5002222;28;20085;-75
2022/08/25 12:09:32;;;;;;;2.30;1.42;;;31.70;63.10;;;;;;5005013;28;20280;-76
2022/08/25 12:12:18;;;;;;;4.90;1.50;;;31.70;62.20;;;;;;4981391;28;20073;-76
2022/08/25 12:14:45;;;;;;;2.42;1.33;;;31.80;61.70;;;;;;4998727;28;20113;-75
2022/08/25 12:17:21;;;;;;;1.70;1.10;;;31.90;60.90;;;;;;4999402;28;20141;-75
2022/08/25 12:19:51;;;;;;;2.72;1.20;;;32.00;60.40;;;;;;4998027;28;20159;-75
2022/08/25 12:22:20;;;;;;;3.97;1.65;;;32.10;59.80;;;;;;5001854;28;20447;-75
2022/08/25 12:24:52;;;;;;;1.52;1.02;;;32.20;59.10;;;;;;5000101;28;20053;-75
2022/08/25 12:27:40;;;;;;;4.60;1.23;;;32.20;59.00;;;;;;4999964;28;20524;-75
2022/08/25 12:30:32;;;;;;;2.50;1.17;;;32.20;58.40;;;;;;5004122;28;20304;-76
2022/08/25 12:32:57;;;;;;;2.83;1.35;;;32.30;54.60;;;;;;5000825;28;20029;-75
2022/08/25 12:35:52;;;;;;;3.22;1.10;;;32.40;57.00;;;;;;5004590;28;20061;-76
2022/08/25 12:38:30;;;;;;;1.85;1.20;;;32.50;56.30;;;;;;5008526;28;20034;-76
2022/08/25 12:41:01;;;;;;;2.05;1.00;;;32.50;55.90;;;;;;4997959;28;20091;-76
2022/08/25 12:43:33;;;;;;;2.75;0.90;;;32.50;55.70;;;;;;4994620;28;20045;-75
2022/08/25 12:46:21;;;;;;;3.55;1.23;;;32.60;54.90;;;;;;4998201;28;20060;-75
2022/08/25 12:49:24;;;;;;;2.00;1.02;;;32.60;55.10;;;;;;4992615;28;20053;-76
2022/08/25 12:52:15;;;;;;;3.00;1.25;;;32.70;53.60;;;;;;5000521;28;20522;-75
2022/08/25 12:54:48;;;;;;;2.85;1.42;;;32.80;53.60;;;;;;4999577;28;20108;-76
2022/08/25 12:57:40;;;;;;;2.47;1.02;;;32.90;53.50;;;;;;4982297;28;20079;-76
2022/08/25 13:00:20;;;;;;;2.17;1.10;;;32.90;52.70;;;;;;4999900;28;20325;-76
2022/08/25 13:03:03;;;;;;;3.95;1.17;;;32.90;52.00;;;;;;4998410;28;20050;-76
2022/08/25 13:05:48;;;;;;;2.13;1.10;;;33.00;51.70;;;;;;5008232;28;20042;-76
2022/08/25 13:08:29;;;;;;;3.35;1.10;;;33.10;50.40;;;;;;5021409;28;20303;-76
2022/08/25 13:11:03;;;;;;;1.88;1.00;;;33.10;51.10;;;;;;5001776;28;20107;-76
2022/08/25 13:13:51;;;;;;;2.25;1.20;;;33.20;51.00;;;;;;4985785;28;20216;-76
2022/08/25 13:16:27;;;;;;;3.35;1.65;;;33.30;50.20;;;;;;4996799;28;20054;-76
2022/08/25 13:18:57;;;;;;;3.20;1.17;;;33.40;49.10;;;;;;4997983;28;20232;-75